createdAt,value
2018-09-26T00:03:56.491Z,99820.00
2018-09-26T00:07:58.745Z,99798.00
2018-09-26T00:12:01.005Z,99791.00
2018-09-26T00:16:03.292Z,99800.00
2018-09-26T00:20:06.183Z,99797.00
2018-09-26T00:24:08.484Z,99781.00
2018-09-26T00:28:10.746Z,99781.00
2018-09-26T00:32:13.056Z,99783.00
2018-09-26T00:36:15.451Z,99788.00
2018-09-26T00:40:20.243Z,99782.00
2018-09-26T00:44:22.546Z,99796.00
2018-09-26T00:48:24.831Z,99796.00
2018-09-26T00:52:27.075Z,99784.00
2018-09-26T00:56:29.381Z,99781.00
2018-09-26T01:00:31.659Z,99777.00
2018-09-26T01:04:33.926Z,99782.00
2018-09-26T01:08:36.254Z,99782.00
2018-09-26T01:12:38.540Z,99792.00
2018-09-26T01:16:40.850Z,99788.00
2018-09-26T01:20:43.738Z,99792.00
2018-09-26T01:24:46.033Z,99795.00
2018-09-26T01:28:48.264Z,99804.00
2018-09-26T01:32:50.606Z,99801.00
2018-09-26T01:36:52.895Z,99799.00
2018-09-26T01:40:55.167Z,99797.00
2018-09-26T01:44:57.430Z,99797.00
2018-09-26T01:48:59.699Z,99790.00
2018-09-26T01:53:01.992Z,99782.00
2018-09-26T01:57:04.308Z,99772.00
2018-09-26T02:01:06.595Z,99767.00
2018-09-26T02:05:08.848Z,99761.00
2018-09-26T02:09:11.960Z,99756.00
2018-09-26T02:13:14.292Z,99747.00
2018-09-26T02:17:18.061Z,99746.00
2018-09-26T02:21:20.399Z,99738.00
2018-09-26T02:25:22.668Z,99740.00
2018-09-26T02:29:24.939Z,99729.00
2018-09-26T02:33:27.246Z,99718.00
2018-09-26T02:37:29.514Z,99722.00
2018-09-26T02:41:31.896Z,99692.00
2018-09-26T02:45:34.174Z,99702.00
2018-09-26T02:49:36.490Z,99693.00
2018-09-26T02:53:38.794Z,99680.00
2018-09-26T02:57:41.040Z,99682.00
2018-09-26T03:01:43.307Z,99671.00
2018-09-26T03:05:45.581Z,99678.00
2018-09-26T03:09:47.866Z,99675.00
2018-09-26T03:13:50.155Z,99679.00
2018-09-26T03:17:52.715Z,99676.00
2018-09-26T03:21:54.996Z,99675.00
2018-09-26T03:25:57.250Z,99667.00
2018-09-26T03:29:59.481Z,99662.00
2018-09-26T03:34:01.777Z,99668.00
2018-09-26T03:38:04.047Z,99653.00
2018-09-26T03:42:06.393Z,99649.00
2018-09-26T03:46:08.655Z,99651.00
2018-09-26T03:50:11.118Z,99651.00
2018-09-26T03:54:13.418Z,99659.00
2018-09-26T03:58:15.673Z,99654.00
2018-09-26T04:02:17.936Z,99647.00
2018-09-26T04:06:20.224Z,99655.00
2018-09-26T04:10:22.609Z,99650.00
2018-09-26T04:14:24.897Z,99638.00
2018-09-26T04:18:27.253Z,99651.00
2018-09-26T04:22:29.631Z,99620.00
2018-09-26T04:26:31.947Z,99625.00
2018-09-26T04:30:34.216Z,99648.00
2018-09-26T04:34:36.390Z,99646.00
2018-09-26T04:38:38.719Z,99645.00
2018-09-26T04:42:40.922Z,99653.00
2018-09-26T04:46:43.229Z,99647.00
2018-09-26T04:50:45.600Z,99656.00
2018-09-26T04:54:47.832Z,99650.00
2018-09-26T04:58:50.134Z,99645.00
2018-09-26T05:02:52.349Z,99637.00
2018-09-26T05:06:54.656Z,99643.00
2018-09-26T05:10:57.032Z,99652.00
2018-09-26T05:14:59.399Z,99651.00
2018-09-26T05:19:01.958Z,99654.00
2018-09-26T05:23:05.258Z,99665.00
2018-09-26T05:27:07.893Z,99652.00
2018-09-26T05:31:10.355Z,99661.00
2018-09-26T05:35:12.654Z,99661.00
2018-09-26T05:39:14.985Z,99672.00
2018-09-26T05:43:17.267Z,99672.00
2018-09-26T05:47:19.579Z,99667.00
2018-09-26T05:51:21.902Z,99667.00
2018-09-26T05:55:24.203Z,99678.00
2018-09-26T05:59:26.510Z,99671.00
2018-09-26T06:03:28.813Z,99648.00
2018-09-26T06:07:31.117Z,99645.00
2018-09-26T06:11:33.427Z,99647.00
2018-09-26T06:15:35.733Z,99638.00
2018-09-26T06:19:38.057Z,99631.00
2018-09-26T06:23:40.335Z,99614.00
2018-09-26T06:27:42.613Z,99621.00
2018-09-26T06:31:44.876Z,99612.00
2018-09-26T06:35:47.158Z,99644.00
2018-09-26T06:39:49.429Z,99670.00
2018-09-26T06:43:51.744Z,99663.00
2018-09-26T06:47:54.033Z,99636.00
2018-09-26T06:51:56.375Z,99652.00
2018-09-26T06:55:58.691Z,99644.00
2018-09-26T07:00:00.978Z,99649.00
2018-09-26T07:04:03.243Z,99673.00
2018-09-26T07:08:05.638Z,99672.00
2018-09-26T07:12:08.029Z,99681.00
2018-09-26T07:16:10.247Z,99684.00
2018-09-26T07:20:12.511Z,99686.00
2018-09-26T07:24:14.846Z,99695.00
2018-09-26T07:28:17.213Z,99699.00
2018-09-26T07:32:19.626Z,99695.00
2018-09-26T07:36:21.851Z,99690.00
2018-09-26T07:40:24.108Z,99681.00
2018-09-26T07:44:26.444Z,99691.00
2018-09-26T07:48:28.907Z,99701.00
2018-09-26T07:52:31.277Z,99708.00
2018-09-26T07:56:33.652Z,99705.00
2018-09-26T08:00:36.017Z,99714.00
2018-09-26T08:04:38.386Z,99712.00
2018-09-26T08:08:40.738Z,99699.00
2018-09-26T08:12:43.134Z,99704.00
2018-09-26T08:16:45.503Z,99703.00
2018-09-26T08:20:47.900Z,99710.00
2018-09-26T08:24:50.246Z,99703.00
2018-09-26T08:28:52.655Z,99711.00
2018-09-26T08:32:54.991Z,99713.00
2018-09-26T08:36:57.313Z,99715.00
2018-09-26T08:41:00.181Z,99713.00
2018-09-26T08:45:02.499Z,99714.00
2018-09-26T08:49:04.850Z,99713.00
2018-09-26T08:53:07.485Z,99701.00
2018-09-26T08:57:09.807Z,99700.00
2018-09-26T09:01:17.901Z,99705.00
2018-09-26T09:05:20.190Z,99714.00
2018-09-26T09:09:22.569Z,99700.00
2018-09-26T09:13:24.864Z,99692.00
2018-09-26T09:17:27.407Z,99686.00
2018-09-26T09:21:29.861Z,99698.00
2018-09-26T09:25:32.158Z,99696.00
2018-09-26T09:29:34.476Z,99687.00
2018-09-26T09:33:36.837Z,99679.00
2018-09-26T09:37:39.161Z,99684.00
2018-09-26T09:41:41.433Z,99685.00
2018-09-26T09:45:43.772Z,99677.00
2018-09-26T09:49:46.068Z,99676.00
2018-09-26T09:53:48.389Z,99658.00
2018-09-26T09:57:50.768Z,99665.00
2018-09-26T10:01:53.137Z,99669.00
2018-09-26T10:05:55.435Z,99666.00
2018-09-26T10:09:57.786Z,99669.00
2018-09-26T10:14:00.108Z,99675.00
2018-09-26T10:18:02.439Z,99668.00
2018-09-26T10:22:04.946Z,99659.00
2018-09-26T10:26:07.394Z,99656.00
2018-09-26T10:30:09.751Z,99669.00
2018-09-26T10:34:12.026Z,99656.00
2018-09-26T10:38:14.317Z,99662.00
2018-09-26T10:42:16.562Z,99657.00
2018-09-26T10:46:18.834Z,99648.00
2018-09-26T10:50:21.117Z,99651.00
2018-09-26T10:54:23.305Z,99646.00
2018-09-26T10:58:25.572Z,99649.00
2018-09-26T11:02:27.945Z,99646.00
2018-09-26T11:06:30.216Z,99642.00
2018-09-26T11:10:32.491Z,99651.00
2018-09-26T11:14:34.756Z,99652.00
2018-09-26T11:18:37.116Z,99651.00
2018-09-26T11:22:39.373Z,99646.00
2018-09-26T11:26:41.727Z,99644.00
2018-09-26T11:30:43.989Z,99641.00
2018-09-26T11:34:46.279Z,99642.00
2018-09-26T11:38:48.556Z,99641.00
2018-09-26T11:42:50.816Z,99643.00
2018-09-26T11:46:53.037Z,99641.00
2018-09-26T11:50:55.302Z,99627.00
2018-09-26T11:54:57.626Z,99625.00
2018-09-26T11:58:59.977Z,99631.00
2018-09-26T12:03:02.291Z,99625.00
2018-09-26T12:07:04.585Z,99627.00
2018-09-26T12:11:06.845Z,99623.00
2018-09-26T12:15:09.138Z,99623.00
2018-09-26T12:19:11.416Z,99617.00
2018-09-26T12:23:13.659Z,99612.00
2018-09-26T12:27:15.964Z,99609.00
2018-09-26T12:31:18.242Z,99606.00
2018-09-26T12:35:20.467Z,99606.00
2018-09-26T12:39:22.686Z,99602.00
2018-09-26T12:43:24.950Z,99596.00
2018-09-26T12:47:27.271Z,99589.00
2018-09-26T12:51:29.598Z,99581.00
2018-09-26T12:55:31.866Z,99581.00
2018-09-26T12:59:34.124Z,99589.00
2018-09-26T13:03:45.904Z,99579.00
2018-09-26T13:07:48.161Z,99572.00
2018-09-26T13:11:50.463Z,99575.00
2018-09-26T13:15:52.649Z,99571.00
2018-09-26T13:19:54.923Z,99573.00
2018-09-26T13:23:57.296Z,99568.00
2018-09-26T13:27:59.544Z,99568.00
2018-09-26T13:32:02.503Z,99564.00
2018-09-26T13:36:04.799Z,99565.00
2018-09-26T13:40:07.219Z,99566.00
2018-09-26T13:44:09.492Z,99563.00
2018-09-26T13:48:11.725Z,99561.00
2018-09-26T13:52:14.005Z,99555.00
2018-09-26T13:56:16.316Z,99555.00
2018-09-26T14:00:18.663Z,99548.00
2018-09-26T14:04:20.909Z,99557.00
2018-09-26T14:08:23.260Z,99551.00
2018-09-26T14:12:25.515Z,99560.00
2018-09-26T14:16:27.810Z,99551.00
2018-09-26T14:20:30.324Z,99551.00
2018-09-26T14:24:32.620Z,99543.00
2018-09-26T14:28:34.855Z,99536.00
2018-09-26T14:32:37.197Z,99535.00
2018-09-26T14:36:39.504Z,99527.00
2018-09-26T14:40:41.819Z,99524.00
2018-09-26T14:44:45.287Z,99520.00
2018-09-26T14:48:47.667Z,99516.00
2018-09-26T14:52:50.030Z,99511.00
2018-09-26T14:56:52.404Z,99504.00
2018-09-26T15:00:54.809Z,99499.00
2018-09-26T15:04:57.104Z,99494.00
2018-09-26T15:08:59.420Z,99485.00
2018-09-26T15:13:01.737Z,99479.00
2018-09-26T15:17:04.063Z,99475.00
2018-09-26T15:21:06.444Z,99464.00
2018-09-26T15:25:08.907Z,99461.00
2018-09-26T15:29:11.261Z,99461.00
2018-09-26T15:33:13.634Z,99468.00
2018-09-26T15:37:15.936Z,99468.00
2018-09-26T15:41:18.243Z,99471.00
2018-09-26T15:45:20.606Z,99469.00
2018-09-26T15:49:22.881Z,99461.00
2018-09-26T15:53:25.173Z,99457.00
2018-09-26T15:57:27.439Z,99455.00
2018-09-26T16:01:30.032Z,99455.00
2018-09-26T16:05:33.428Z,99449.00
2018-09-26T16:09:35.740Z,99452.00
2018-09-26T16:13:38.096Z,99450.00
2018-09-26T16:17:40.484Z,99453.00
2018-09-26T16:21:42.810Z,99454.00
2018-09-26T16:25:45.139Z,99451.00
2018-09-26T16:29:47.407Z,99456.00
2018-09-26T16:33:49.752Z,99450.00
2018-09-26T16:37:52.096Z,99457.00
2018-09-26T16:41:54.427Z,99455.00
2018-09-26T16:45:56.794Z,99461.00
2018-09-26T16:49:59.057Z,99456.00
2018-09-26T16:54:01.311Z,99463.00
2018-09-26T16:58:03.588Z,99458.00
2018-09-26T17:02:06.013Z,99456.00
2018-09-26T17:06:08.425Z,99462.00
2018-09-26T17:10:10.667Z,99468.00
2018-09-26T17:14:13.033Z,99465.00
2018-09-26T17:18:15.368Z,99462.00
2018-09-26T17:22:17.751Z,99462.00
2018-09-26T17:26:20.212Z,99472.00
2018-09-26T17:30:22.508Z,99478.00
2018-09-26T17:34:24.869Z,99480.00
2018-09-26T17:38:27.201Z,99485.00
2018-09-26T17:42:29.612Z,99475.00
2018-09-26T17:46:32.131Z,99490.00
2018-09-26T17:50:34.438Z,99487.00
2018-09-26T17:54:36.750Z,99483.00
2018-09-26T17:58:38.994Z,99488.00
2018-09-26T18:02:41.885Z,99479.00
2018-09-26T18:06:44.119Z,99483.00
2018-09-26T18:10:46.367Z,99486.00
2018-09-26T18:14:48.629Z,99485.00
2018-09-26T18:18:51.446Z,99485.00
2018-09-26T18:22:53.726Z,99488.00
2018-09-26T18:26:55.959Z,99497.00
2018-09-26T18:30:58.291Z,99485.00
2018-09-26T18:35:00.479Z,99493.00
2018-09-26T18:39:03.085Z,99497.00
2018-09-26T18:43:05.471Z,99495.00
2018-09-26T18:47:07.798Z,99496.00
2018-09-26T18:51:10.607Z,99501.00
2018-09-26T18:55:12.777Z,99501.00
2018-09-26T18:59:15.147Z,99485.00
2018-09-26T19:03:17.908Z,99492.00
2018-09-26T19:07:20.386Z,99481.00
2018-09-26T19:11:23.664Z,99484.00
2018-09-26T19:15:26.041Z,99483.00
2018-09-26T19:19:28.428Z,99485.00
2018-09-26T19:23:30.716Z,99489.00
2018-09-26T19:27:33.149Z,99491.00
2018-09-26T19:31:36.139Z,99497.00
2018-09-26T19:35:39.515Z,99492.00
2018-09-26T19:39:41.830Z,99487.00
2018-09-26T19:43:44.136Z,99489.00
2018-09-26T19:47:46.484Z,99485.00
2018-09-26T19:51:48.791Z,99482.00
2018-09-26T19:55:51.150Z,99484.00
2018-09-26T19:59:53.377Z,99486.00
2018-09-26T20:03:55.733Z,99493.00
2018-09-26T20:07:59.373Z,99489.00
2018-09-26T20:12:01.579Z,99487.00
2018-09-26T20:16:03.956Z,99489.00
2018-09-26T20:20:06.302Z,99489.00
2018-09-26T20:24:08.657Z,99493.00
2018-09-26T20:28:11.032Z,99486.00
2018-09-26T20:32:13.385Z,99482.00
2018-09-26T20:36:15.732Z,99486.00
2018-09-26T20:40:18.082Z,99480.00
2018-09-26T20:44:20.451Z,99468.00
2018-09-26T20:48:22.715Z,99470.00
2018-09-26T20:52:25.010Z,99479.00
2018-09-26T20:56:27.431Z,99475.00
2018-09-26T21:00:29.833Z,99470.00
2018-09-26T21:04:32.169Z,99467.00
2018-09-26T21:08:34.436Z,99466.00
2018-09-26T21:12:36.689Z,99474.00
2018-09-26T21:16:39.007Z,99471.00
2018-09-26T21:20:41.316Z,99480.00
2018-09-26T21:24:43.777Z,99477.00
2018-09-26T21:28:46.077Z,99475.00
2018-09-26T21:32:48.360Z,99481.00
2018-09-26T21:36:50.628Z,99485.00
2018-09-26T21:40:52.873Z,99483.00
2018-09-26T21:44:55.111Z,99489.00
2018-09-26T21:48:57.385Z,99483.00
2018-09-26T21:52:59.646Z,99470.00
2018-09-26T21:57:01.856Z,99462.00
2018-09-26T22:01:08.751Z,99462.00
2018-09-26T22:05:11.155Z,99455.00
2018-09-26T22:09:13.557Z,99456.00
2018-09-26T22:13:15.935Z,99460.00
2018-09-26T22:17:18.328Z,99465.00
2018-09-26T22:21:20.683Z,99453.00
2018-09-26T22:25:23.182Z,99463.00
2018-09-26T22:29:25.543Z,99464.00
2018-09-26T22:33:28.304Z,99468.00
2018-09-26T22:37:30.682Z,99469.00
2018-09-26T22:41:33.080Z,99474.00
2018-09-26T22:45:35.452Z,99485.00
2018-09-26T22:49:37.881Z,99495.00
2018-09-26T22:53:40.275Z,99489.00
2018-09-26T22:57:42.673Z,99484.00
2018-09-26T23:01:45.051Z,99491.00
2018-09-26T23:05:47.428Z,99482.00
2018-09-26T23:09:49.792Z,99482.00
2018-09-26T23:13:52.184Z,99480.00
2018-09-26T23:17:54.585Z,99475.00
2018-09-26T23:21:56.953Z,99482.00
2018-09-26T23:25:59.404Z,99477.00
2018-09-26T23:30:01.810Z,99473.00
2018-09-26T23:34:04.213Z,99470.00
2018-09-26T23:38:06.585Z,99456.00
2018-09-26T23:42:08.955Z,99456.00
2018-09-26T23:46:11.339Z,99451.00
2018-09-26T23:50:13.733Z,99449.00
2018-09-26T23:54:16.537Z,99439.00
2018-09-26T23:58:18.878Z,99439.00
